Time;durP1;ratioP1;P1;durP2;ratioP2;P2;SDS_P1;SDS_P2;PMS_P1;PMS_P2;Temp;Humidity;BMP_temperature;BMP_pressure;BME280_temperature;BME280_humidity;BME280_pressure;Samples;Min_cycle;Max_cycle;Signal;HPM_P1;HPM_P2
2022/01/26 00:09:26;;;;;;;16.60;9.80;;;;;;;0.82;89.34;99718.09;219340;1276;22573;-71
2022/01/26 00:14:32;;;;;;;15.20;9.60;;;;;;;0.80;89.55;99720.20;219530;1274;23301;-71
2022/01/26 00:19:55;;;;;;;16.80;9.60;;;;;;;0.79;89.33;99712.33;219563;1277;25372;-71
2022/01/26 00:25:44;;;;;;;;;;;;;;;0.79;89.36;99707.24;219581;1274;22698;-71
2022/01/26 00:41:37;;;;;;;15.60;8.90;;;;;;;0.75;89.39;99702.59;219750;1274;22716;-70
2022/01/26 00:46:48;;;;;;;15.80;9.00;;;;;;;0.74;89.69;99705.63;219648;1274;22567;-71
2022/01/26 00:51:57;;;;;;;17.00;9.90;;;;;;;0.74;89.63;99707.24;219542;1274;23043;-70
2022/01/26 00:57:17;;;;;;;14.00;8.30;;;;;;;0.75;89.76;99705.14;219650;1274;22701;-70
2022/01/26 01:02:23;;;;;;;18.20;9.80;;;;;;;0.76;89.62;99705.88;219632;1274;25452;-71
2022/01/26 01:07:33;;;;;;;16.90;10.10;;;;;;;0.75;89.53;99699.86;219300;1277;22715;-70
2022/01/26 01:12:43;;;;;;;16.30;9.10;;;;;;;0.76;89.57;99697.96;219660;1274;22584;-70
2022/01/26 01:17:54;;;;;;;17.50;9.50;;;;;;;0.75;89.70;99692.10;218896;1274;24776;-71
2022/01/26 01:33:32;;;;;;;16.60;9.10;;;;;;;0.78;89.84;99693.70;218593;1274;22652;-71
2022/01/26 01:38:44;;;;;;;14.20;8.80;;;;;;;0.79;89.80;99689.89;219537;1274;24350;-71
2022/01/26 01:43:48;;;;;;;14.40;8.60;;;;;;;0.80;89.75;99683.88;219536;1274;24252;-70
2022/01/26 01:48:56;;;;;;;15.10;8.90;;;;;;;0.80;89.63;99682.73;218653;1273;22639;-71
2022/01/26 01:53:59;;;;;;;16.40;9.10;;;;;;;0.80;89.87;99676.94;219694;1274;22548;-70
2022/01/26 01:59:08;;;;;;;15.60;9.10;;;;;;;0.79;89.72;99674.38;219534;1274;22580;-71
2022/01/26 02:04:21;;;;;;;13.70;8.20;;;;;;;0.80;89.97;99672.33;219569;1274;25395;-71
2022/01/26 02:09:29;;;;;;;15.50;8.30;;;;;;;0.82;89.89;99668.73;219752;1274;22583;-70
2022/01/26 02:14:36;;;;;;;15.20;9.00;;;;;;;0.83;89.85;99663.99;219527;1274;22750;-71
2022/01/26 02:54:37;;;;;;;16.20;8.80;;;;;;;0.88;89.84;99650.07;219462;1277;22580;-71
2022/01/26 03:04:01;;;;;;;13.00;8.30;;;;;;;0.88;89.91;99643.49;219581;1277;22554;-71
2022/01/26 03:09:14;;;;;;;13.50;8.40;;;;;;;0.87;89.63;99643.45;219761;1277;22580;-71
2022/01/26 03:19:48;;;;;;;12.80;8.00;;;;;;;0.90;89.68;99639.56;219303;1275;22557;-71
2022/01/26 03:35:26;;;;;;;15.70;7.80;;;;;;;0.88;89.47;99639.81;219466;1276;24380;-71
2022/01/26 03:40:35;;;;;;;13.00;7.90;;;;;;;0.82;89.66;99632.46;219706;1277;22567;-71
2022/01/26 03:45:40;;;;;;;12.00;7.40;;;;;;;0.83;89.85;99629.50;219463;1277;22548;-71
2022/01/26 03:50:57;;;;;;;15.90;8.80;;;;;;;0.85;89.84;99629.70;219612;1277;25378;-72
2022/01/26 03:56:03;;;;;;;18.50;10.00;;;;;;;0.84;89.62;99634.73;219449;1277;24366;-71
2022/01/26 04:01:14;;;;;;;20.10;11.10;;;;;;;0.80;89.68;99631.69;219575;1277;22570;-72
2022/01/26 04:06:17;;;;;;;20.70;11.40;;;;;;;0.80;89.73;99629.14;219430;1275;25534;-72
2022/01/26 04:16:28;;;;;;;28.20;14.60;;;;;;;0.77;89.92;99623.30;219488;1277;22578;-71
2022/01/26 04:22:05;;;;;;;32.80;15.30;;;;;;;0.81;89.81;99628.89;219381;1276;22614;-71
2022/01/26 04:27:13;;;;;;;31.30;16.30;;;;;;;0.80;89.74;99632.23;219389;1276;22551;-71
2022/01/26 04:32:41;;;;;;;31.10;15.20;;;;;;;0.80;89.63;99633.07;219506;1275;25405;-72
2022/01/26 04:38:51;;;;;;;27.40;14.60;;;;;;;0.76;89.67;99632.73;219349;1276;23379;-72
2022/01/26 04:43:23;;;;;;;26.90;14.60;;;;;;;0.73;89.70;99634.73;219384;1276;22583;-72
2022/01/26 04:48:26;;;;;;;28.30;15.60;;;;;;;0.70;89.61;99632.02;219438;1276;22553;-72
2022/01/26 04:53:32;;;;;;;27.20;14.40;;;;;;;0.72;89.63;99635.78;219430;1276;22578;-71
2022/01/26 04:58:35;;;;;;;27.60;15.10;;;;;;;0.71;89.73;99633.97;219458;1276;22719;-71
2022/01/26 05:03:38;;;;;;;27.70;14.50;;;;;;;0.73;89.69;99632.50;219547;1276;24318;-72
2022/01/26 05:08:43;;;;;;;26.50;14.20;;;;;;;0.75;89.91;99624.64;219440;1276;24311;-72
2022/01/26 05:13:50;;;;;;;24.40;13.50;;;;;;;0.76;89.78;99622.77;219612;1274;24447;-71
2022/01/26 05:18:54;;;;;;;27.70;15.10;;;;;;;0.71;89.50;99622.23;219631;1274;22570;-73
2022/01/26 05:24:07;;;;;;;26.40;14.30;;;;;;;0.68;89.62;99621.46;219706;1274;22539;-71
2022/01/26 05:29:18;;;;;;;;;;;;;;;0.66;89.52;99616.15;219558;1277;22592;-71
2022/01/26 05:34:40;;;;;;;;;;;;;;;;;;;;;
2022/01/26 05:39:45;;;;;;;22.60;11.60;;;;;;;0.48;89.29;99612.12;219842;1274;24228;-71
2022/01/26 05:44:53;;;;;;;22.50;11.40;;;;;;;0.40;89.64;99610.52;219548;1277;23513;-72
2022/01/26 05:50:01;;;;;;;17.70;9.60;;;;;;;0.32;89.66;99604.77;219787;1274;22550;-71
2022/01/26 05:55:05;;;;;;;16.10;9.20;;;;;;;0.27;89.82;99603.37;219807;1274;25380;-71
2022/01/26 06:00:17;;;;;;;17.20;9.40;;;;;;;0.23;90.02;99597.92;219480;1276;22565;-71
2022/01/26 06:05:48;;;;;;;15.60;9.30;;;;;;;0.27;90.40;99600.37;219673;1275;22657;-70
2022/01/26 06:11:44;;;;;;;16.90;9.40;;;;;;;0.35;90.64;99600.02;219702;1274;24814;-71
2022/01/26 06:17:07;;;;;;;19.60;10.00;;;;;;;0.45;90.81;99595.81;219816;1274;25476;-71
2022/01/26 06:22:37;;;;;;;17.30;10.10;;;;;;;0.53;90.60;99600.94;219600;1274;22558;-71
2022/01/26 06:28:16;;;;;;;19.00;10.50;;;;;;;0.58;90.50;99606.00;219624;1274;24566;-72
2022/01/26 06:33:20;;;;;;;19.70;11.20;;;;;;;0.60;90.36;99599.83;219764;1275;25388;-70
2022/01/26 06:38:25;;;;;;;19.40;11.70;;;;;;;0.62;90.59;99601.26;219647;1277;25166;-71
2022/01/26 06:43:32;;;;;;;17.20;10.00;;;;;;;0.66;90.75;99600.49;219885;1277;24440;-71
2022/01/26 06:48:44;;;;;;;17.00;10.00;;;;;;;0.71;90.27;99600.45;220103;1277;25271;-70
2022/01/26 06:53:53;;;;;;;14.50;8.90;;;;;;;0.74;90.12;99601.63;219861;1277;25274;-71
2022/01/26 06:59:04;;;;;;;13.60;8.20;;;;;;;0.79;90.44;99596.66;219984;1277;26449;-69
2022/01/26 07:04:07;;;;;;;15.30;9.10;;;;;;;0.87;90.47;99590.41;220096;1277;22563;-71
2022/01/26 07:09:13;;;;;;;14.50;9.10;;;;;;;0.90;90.10;99592.37;220235;1274;25411;-72
2022/01/26 07:14:26;;;;;;;17.70;10.90;;;;;;;0.93;90.14;99592.72;220104;1274;25386;-70
2022/01/26 07:19:52;;;;;;;17.60;10.10;;;;;;;0.94;89.92;99591.91;219988;1274;24474;-70
2022/01/26 07:25:01;;;;;;;16.70;11.10;;;;;;;0.99;89.86;99587.92;218350;1277;26270;-70
2022/01/26 07:30:12;;;;;;;18.50;11.10;;;;;;;1.04;89.89;99591.81;220079;1274;25011;-71
2022/01/26 07:35:17;;;;;;;19.20;11.10;;;;;;;1.09;90.01;99593.79;219959;1274;27334;-70
2022/01/26 07:40:41;;;;;;;;;;;;;;;;;;;;;
2022/01/26 07:45:47;;;;;;;22.70;12.70;;;;;;;1.08;89.72;99588.67;219947;1274;26823;-70
2022/01/26 07:50:57;;;;;;;23.20;13.20;;;;;;;1.09;89.67;99588.02;219907;1274;25377;-70
2022/01/26 07:56:08;;;;;;;;;;;;;;;1.14;89.78;99586.71;218508;1275;22585;-71
2022/01/26 08:01:36;;;;;;;20.60;11.80;;;;;;;1.23;89.92;99591.90;220146;1274;23115;-72
2022/01/26 08:06:42;;;;;;;20.10;11.00;;;;;;;1.28;89.70;99594.20;220070;1274;25444;-70
2022/01/26 08:11:54;;;;;;;26.40;14.10;;;;;;;1.35;89.83;99598.09;219986;1274;22642;-71
2022/01/26 08:16:56;;;;;;;24.80;14.10;;;;;;;1.44;90.00;99598.27;219903;1275;24174;-71
2022/01/26 08:22:03;;;;;;;28.80;14.50;;;;;;;1.48;89.79;99598.00;217013;1274;4286149;-70
2022/01/26 08:27:15;;;;;;;28.50;15.80;;;;;;;1.53;89.75;99593.51;219871;1274;25102;-70
2022/01/26 08:32:46;;;;;;;30.70;16.90;;;;;;;1.58;89.82;99596.71;219913;1276;25270;-74
2022/01/26 08:37:49;;;;;;;28.80;16.80;;;;;;;1.59;89.51;99594.80;219992;1274;23454;-71
2022/01/26 08:43:04;;;;;;;30.60;17.00;;;;;;;1.60;89.59;99596.66;219930;1277;23992;-71
2022/01/26 08:48:07;;;;;;;32.00;17.30;;;;;;;1.65;89.50;99595.11;219961;1277;25436;-71
2022/01/26 08:53:25;;;;;;;32.40;18.00;;;;;;;1.69;89.76;99598.48;220299;1274;25379;-71
2022/01/26 08:58:36;;;;;;;32.50;17.50;;;;;;;1.76;89.64;99600.50;220213;1274;22780;-71
2022/01/26 09:04:03;;;;;;;34.30;18.50;;;;;;;1.79;89.44;99600.77;220066;1275;25369;-71
2022/01/26 09:09:30;;;;;;;29.50;16.40;;;;;;;1.82;89.52;99608.02;220306;1274;22530;-71
2022/01/26 09:14:37;;;;;;;31.40;17.50;;;;;;;1.86;89.43;99611.51;220246;1274;22564;-71
2022/01/26 09:19:49;;;;;;;28.60;16.00;;;;;;;1.90;89.50;99614.70;219985;1274;22582;-71
2022/01/26 09:24:54;;;;;;;25.00;15.30;;;;;;;1.96;89.23;99616.27;219991;1277;22640;-71
2022/01/26 09:30:01;;;;;;;21.90;12.30;;;;;;;2.00;89.32;99609.13;219762;1276;25375;-70
2022/01/26 09:35:18;;;;;;;16.70;10.30;;;;;;;2.05;89.15;99606.45;219764;1277;22627;-71
2022/01/26 09:40:24;;;;;;;16.60;10.50;;;;;;;2.09;88.92;99607.61;219909;1277;23307;-71
2022/01/26 09:45:41;;;;;;;14.30;7.60;;;;;;;2.17;89.04;99604.57;220044;1274;25432;-71
2022/01/26 09:50:54;;;;;;;12.30;6.90;;;;;;;2.21;88.91;99604.60;219803;1277;22925;-70
2022/01/26 09:55:58;;;;;;;13.90;8.10;;;;;;;2.31;88.90;99604.06;220047;1277;22834;-71
2022/01/26 10:01:04;;;;;;;12.70;7.30;;;;;;;2.40;88.88;99604.16;220026;1277;22581;-71
2022/01/26 10:06:26;;;;;;;14.10;9.00;;;;;;;2.51;88.58;99600.88;220251;1274;25345;-70
2022/01/26 10:17:25;;;;;;;13.30;7.80;;;;;;;2.52;88.27;99596.31;219874;1277;22574;-70
2022/01/26 10:22:43;;;;;;;13.70;8.60;;;;;;;2.52;88.08;99596.35;219646;1277;24235;-70
2022/01/26 10:27:54;;;;;;;17.60;11.40;;;;;;;2.51;88.03;99591.93;219891;1275;22569;-71
2022/01/26 10:32:56;;;;;;;14.10;8.20;;;;;;;2.49;87.91;99585.98;220113;1277;22618;-70
2022/01/26 10:38:06;;;;;;;14.00;8.30;;;;;;;2.43;87.78;99581.61;219878;1277;22578;-70
2022/01/26 10:43:17;;;;;;;11.80;7.30;;;;;;;2.41;87.93;99575.31;220244;1274;22548;-70
2022/01/26 10:48:59;;;;;;;12.70;8.20;;;;;;;2.38;87.84;99577.48;220096;1275;22714;-72
2022/01/26 10:54:35;;;;;;;14.60;8.00;;;;;;;2.40;88.06;99567.96;220067;1275;24457;-70
2022/01/26 10:59:47;;;;;;;15.60;8.30;;;;;;;2.42;87.88;99565.18;220314;1276;22710;-69
2022/01/26 11:05:20;;;;;;;13.20;7.30;;;;;;;2.40;87.87;99555.63;217912;1277;22600;-70
2022/01/26 11:10:55;;;;;;;15.70;9.10;;;;;;;2.42;87.70;99548.41;220386;1274;22590;-69
2022/01/26 11:16:21;;;;;;;16.00;10.10;;;;;;;2.44;87.97;99545.55;218561;1275;25443;-69
2022/01/26 11:21:59;;;;;;;18.20;11.30;;;;;;;2.50;87.97;99543.30;218059;1277;22535;-70
2022/01/26 11:27:37;;;;;;;23.60;14.30;;;;;;;2.54;88.00;99529.14;218395;1277;22653;-70
2022/01/26 11:32:58;;;;;;;28.40;16.60;;;;;;;2.54;87.80;99537.54;218603;1275;24247;-69
2022/01/26 11:49:13;;;;;;;29.90;17.40;;;;;;;2.58;87.92;99526.96;218476;1274;22713;-70
2022/01/26 11:54:16;;;;;;;25.20;15.40;;;;;;;2.56;87.87;99526.96;218513;1275;25452;-69
2022/01/26 11:59:27;;;;;;;24.30;15.00;;;;;;;2.54;87.78;99515.59;218519;1274;24666;-71
2022/01/26 12:04:36;;;;;;;23.90;15.20;;;;;;;2.53;87.78;99505.77;218689;1274;22611;-69
2022/01/26 12:09:45;;;;;;;24.50;14.30;;;;;;;2.51;87.82;99498.90;220580;1274;22821;-69
2022/01/26 12:15:15;;;;;;;20.30;13.30;;;;;;;2.51;87.83;99494.34;220239;1274;22570;-70
2022/01/26 12:37:15;;;;;;;17.50;10.60;;;;;;;2.48;87.76;99494.58;218488;1274;25453;-69
2022/01/26 12:54:26;;;;;;;12.50;8.50;;;;;;;2.50;87.77;99484.58;219797;1278;25252;-70
2022/01/26 12:59:40;;;;;;;15.00;8.70;;;;;;;2.51;87.89;99484.23;218266;1277;25943;-71
2022/01/26 13:05:04;;;;;;;17.20;10.10;;;;;;;2.49;87.82;99478.36;218159;1277;22700;-69
2022/01/26 13:10:19;;;;;;;14.70;8.40;;;;;;;2.51;87.94;99474.04;218426;1277;25379;-70
2022/01/26 13:15:38;;;;;;;13.30;8.00;;;;;;;2.53;87.90;99472.55;218455;1277;24157;-71
2022/01/26 13:21:14;;;;;;;13.00;7.90;;;;;;;2.47;87.57;99474.28;219760;1274;25327;-69
2022/01/26 13:27:03;;;;;;;13.30;8.20;;;;;;;2.44;87.77;99482.48;218612;1274;22578;-70
2022/01/26 13:32:15;;;;;;;18.10;9.70;;;;;;;2.40;87.74;99486.34;220179;1274;22598;-71
2022/01/26 13:53:12;;;;;;;16.90;9.90;;;;;;;2.26;88.08;99491.34;218583;1274;22565;-70
2022/01/26 14:03:23;;;;;;;16.40;9.10;;;;;;;2.22;88.05;99481.81;218635;1274;22605;-70
2022/01/26 14:08:25;;;;;;;14.90;9.00;;;;;;;2.19;88.03;99478.10;218861;1274;22960;-71
2022/01/26 14:13:37;;;;;;;15.90;9.00;;;;;;;2.17;88.21;99477.21;218453;1274;24256;-71
2022/01/26 14:18:48;;;;;;;19.80;10.40;;;;;;;2.16;88.22;99478.48;220274;1274;22569;-70
2022/01/26 14:24:11;;;;;;;13.30;8.60;;;;;;;2.14;87.96;99472.41;220093;1275;22557;-70
2022/01/26 15:34:57;;;;;;;12.60;7.70;;;;;;;2.01;88.24;99489.73;219866;1274;22548;-71
2022/01/26 15:40:19;;;;;;;13.40;8.00;;;;;;;2.00;88.43;99491.66;219805;1274;22564;-71
2022/01/26 15:50:52;;;;;;;16.50;9.50;;;;;;;1.95;88.48;99497.23;219601;1277;23331;-70
2022/01/26 18:53:48;;;;;;;27.00;14.10;;;;;;;1.32;87.97;99462.08;219621;1274;26269;-70
2022/01/26 18:58:58;;;;;;;22.30;13.40;;;;;;;1.31;88.00;99455.02;218557;1276;22553;-71
2022/01/26 19:04:03;;;;;;;19.70;12.50;;;;;;;1.31;87.89;99451.64;219073;1274;22636;-71
2022/01/26 19:09:07;;;;;;;23.20;12.70;;;;;;;1.32;88.02;99450.04;218829;1274;24263;-71
2022/01/26 19:14:09;;;;;;;26.50;14.50;;;;;;;1.32;88.03;99440.10;219271;1274;22714;-71
2022/01/26 19:46:31;;;;;;;26.60;15.10;;;;;;;0.96;87.85;99390.54;219909;1274;22600;-71
2022/01/26 19:51:37;;;;;;;30.70;16.70;;;;;;;0.96;87.74;99393.95;219707;1274;22711;-71
2022/01/26 19:56:39;;;;;;;32.50;18.00;;;;;;;0.94;87.85;99398.52;219882;1274;24227;-70
2022/01/26 20:01:47;;;;;;;31.80;16.90;;;;;;;0.90;87.93;99397.99;220197;1274;22568;-71
2022/01/26 20:06:51;;;;;;;29.70;15.90;;;;;;;0.90;87.87;99402.83;219775;1274;22559;-70
2022/01/26 20:11:57;;;;;;;25.80;14.40;;;;;;;0.96;88.03;99401.55;219877;1274;24326;-71
2022/01/26 20:17:07;;;;;;;34.10;17.40;;;;;;;0.96;87.84;99397.11;219765;1274;22556;-72
2022/01/26 20:22:21;;;;;;;31.10;17.30;;;;;;;0.92;87.96;99408.54;218775;1274;306336;-71
2022/01/26 20:27:26;;;;;;;31.40;16.70;;;;;;;0.89;87.86;99423.73;219693;1274;24339;-71
2022/01/26 20:32:29;;;;;;;32.50;18.20;;;;;;;0.93;88.18;99437.16;219677;1274;22933;-71
2022/01/26 20:37:34;;;;;;;30.40;16.70;;;;;;;0.95;87.95;99428.73;219723;1274;25428;-71
2022/01/26 20:42:38;;;;;;;35.90;17.90;;;;;;;0.89;87.99;99425.43;219372;1276;22817;-71
2022/01/26 20:47:40;;;;;;;35.90;19.60;;;;;;;0.82;87.83;99425.50;219672;1274;24339;-71
2022/01/26 20:52:46;;;;;;;32.00;18.40;;;;;;;0.79;87.99;99430.66;219706;1274;22660;-71
2022/01/26 20:57:49;;;;;;;55.50;29.30;;;;;;;0.84;88.30;99429.30;219937;1274;22566;-71
2022/01/26 21:02:57;;;;;;;34.00;18.20;;;;;;;0.89;88.42;99424.98;219394;1276;22649;-71
2022/01/26 21:08:00;;;;;;;31.40;17.80;;;;;;;0.91;88.13;99424.73;219606;1274;22593;-70
2022/01/26 21:13:03;;;;;;;28.20;16.20;;;;;;;0.93;88.24;99415.67;219566;1274;25498;-70
2022/01/26 21:18:29;;;;;;;;;;;;;;;;;;;;;
2022/01/26 21:23:45;;;;;;;29.00;15.80;;;;;;;0.94;88.00;99407.65;219645;1277;22652;-70
2022/01/26 21:28:48;;;;;;;26.10;14.40;;;;;;;0.96;88.04;99406.37;219521;1277;22830;-71
2022/01/26 21:34:02;;;;;;;28.10;15.80;;;;;;;1.00;87.90;99409.73;219565;1277;22567;-71
2022/01/26 21:39:08;;;;;;;25.60;14.20;;;;;;;0.99;87.78;99410.38;219592;1274;22569;-70
2022/01/26 21:44:13;;;;;;;29.00;14.30;;;;;;;1.00;87.65;99406.52;219915;1274;25427;-70
2022/01/26 21:49:21;;;;;;;26.30;14.10;;;;;;;1.02;87.63;99393.69;219932;1274;22546;-70
2022/01/26 21:54:26;;;;;;;21.20;12.40;;;;;;;1.06;87.82;99398.29;219627;1274;24257;-71
2022/01/26 21:59:32;;;;;;;22.90;13.10;;;;;;;1.06;87.77;99395.57;219474;1276;22582;-71
2022/01/26 22:04:34;;;;;;;23.20;12.70;;;;;;;1.07;87.67;99396.45;219581;1276;24151;-70
2022/01/26 22:09:37;;;;;;;21.70;10.50;;;;;;;1.07;87.28;99398.60;219795;1274;25423;-71
2022/01/26 22:14:59;;;;;;;20.60;10.40;;;;;;;1.08;87.40;99410.38;219532;1274;26454;-70
2022/01/26 22:20:05;;;;;;;20.60;11.60;;;;;;;1.09;87.28;99417.11;218931;1274;25329;-71
2022/01/26 22:25:13;;;;;;;22.70;12.00;;;;;;;1.05;86.89;99416.81;219950;1274;23235;-70
2022/01/26 22:30:29;;;;;;;21.60;12.30;;;;;;;1.04;86.77;99417.67;219342;1276;22652;-70
2022/01/26 22:35:53;;;;;;;22.80;12.20;;;;;;;1.01;86.83;99400.15;219592;1274;25372;-71
2022/01/26 22:40:58;;;;;;;20.50;11.80;;;;;;;0.96;86.70;99384.78;219771;1274;22661;-70
2022/01/26 22:46:00;;;;;;;20.60;11.10;;;;;;;0.94;86.44;99383.16;219616;1274;23131;-70
2022/01/26 22:51:05;;;;;;;22.20;11.10;;;;;;;0.90;86.39;99374.41;219690;1274;22548;-72
2022/01/26 22:56:37;;;;;;;19.00;10.70;;;;;;;0.85;86.35;99356.02;219585;1274;24098;-70
2022/01/26 23:07:03;;;;;;;16.40;9.40;;;;;;;0.79;86.30;99365.77;218702;1274;25660;-71
2022/01/26 23:12:40;;;;;;;15.60;8.90;;;;;;;0.80;86.43;99355.45;219674;1274;22649;-70
2022/01/26 23:17:45;;;;;;;15.80;8.80;;;;;;;0.82;86.28;99356.02;219727;1274;22507;-71
2022/01/26 23:22:49;;;;;;;14.60;8.80;;;;;;;0.75;86.09;99346.41;219559;1274;22604;-71
2022/01/26 23:33:51;;;;;;;13.80;7.90;;;;;;;0.56;85.99;99340.47;219859;1274;24441;-71
2022/01/26 23:39:25;;;;;;;13.80;7.90;;;;;;;0.57;86.38;99352.15;219878;1274;24447;-70
